sensor_id;sensor_type;location;lat;lon;timestamp;P1;durP1;ratioP1;P2;durP2;ratioP2
60494;SDS011;46342;49.046;11.920;2023-04-24T00:00:16;1.20;;;1.10;;
60494;SDS011;46342;49.046;11.920;2023-04-24T00:02:42;1.33;;;1.23;;
60494;SDS011;46342;49.046;11.920;2023-04-24T00:05:13;1.38;;;1.13;;
60494;SDS011;46342;49.046;11.920;2023-04-24T00:07:40;1.10;;;1.10;;
60494;SDS011;46342;49.046;11.920;2023-04-24T00:10:07;1.02;;;0.90;;
60494;SDS011;46342;49.046;11.920;2023-04-24T00:12:33;1.45;;;0.98;;
60494;SDS011;46342;49.046;11.920;2023-04-24T00:14:59;1.88;;;1.10;;
60494;SDS011;46342;49.046;11.920;2023-04-24T00:17:25;0.98;;;0.98;;
60494;SDS011;46342;49.046;11.920;2023-04-24T00:19:51;1.00;;;1.00;;
60494;SDS011;46342;49.046;11.920;2023-04-24T00:22:23;2.10;;;1.25;;
60494;SDS011;46342;49.046;11.920;2023-04-24T00:24:52;2.15;;;1.10;;
60494;SDS011;46342;49.046;11.920;2023-04-24T00:27:17;1.30;;;1.10;;
60494;SDS011;46342;49.046;11.920;2023-04-24T00:29:43;3.33;;;1.58;;
60494;SDS011;46342;49.046;11.920;2023-04-24T00:32:08;1.30;;;1.20;;
60494;SDS011;46342;49.046;11.920;2023-04-24T00:34:34;1.98;;;1.17;;
60494;SDS011;46342;49.046;11.920;2023-04-24T00:37:03;1.30;;;1.17;;
60494;SDS011;46342;49.046;11.920;2023-04-24T00:39:28;2.17;;;1.17;;
60494;SDS011;46342;49.046;11.920;2023-04-24T00:41:54;1.65;;;1.27;;
60494;SDS011;46342;49.046;11.920;2023-04-24T00:44:20;1.88;;;1.70;;
60494;SDS011;46342;49.046;11.920;2023-04-24T00:46:46;1.73;;;1.30;;
60494;SDS011;46342;49.046;11.920;2023-04-24T00:49:12;1.15;;;1.05;;
60494;SDS011;46342;49.046;11.920;2023-04-24T00:51:38;3.53;;;1.50;;
60494;SDS011;46342;49.046;11.920;2023-04-24T00:54:05;1.30;;;1.20;;
60494;SDS011;46342;49.046;11.920;2023-04-24T00:56:31;2.10;;;1.50;;
60494;SDS011;46342;49.046;11.920;2023-04-24T00:58:57;3.10;;;1.38;;
60494;SDS011;46342;49.046;11.920;2023-04-24T01:01:23;1.33;;;1.20;;
60494;SDS011;46342;49.046;11.920;2023-04-24T01:03:49;1.05;;;1.02;;
60494;SDS011;46342;49.046;11.920;2023-04-24T01:06:16;1.40;;;1.30;;
60494;SDS011;46342;49.046;11.920;2023-04-24T01:08:43;2.10;;;1.25;;
60494;SDS011;46342;49.046;11.920;2023-04-24T01:11:10;3.80;;;1.45;;
60494;SDS011;46342;49.046;11.920;2023-04-24T01:13:35;1.75;;;1.52;;
60494;SDS011;46342;49.046;11.920;2023-04-24T01:16:01;1.75;;;1.30;;
60494;SDS011;46342;49.046;11.920;2023-04-24T01:18:27;1.40;;;1.30;;
60494;SDS011;46342;49.046;11.920;2023-04-24T01:20:53;1.70;;;1.25;;
60494;SDS011;46342;49.046;11.920;2023-04-24T01:23:22;1.50;;;1.30;;
60494;SDS011;46342;49.046;11.920;2023-04-24T01:25:48;2.38;;;1.33;;
60494;SDS011;46342;49.046;11.920;2023-04-24T01:28:15;1.40;;;1.30;;
60494;SDS011;46342;49.046;11.920;2023-04-24T01:30:41;2.15;;;1.58;;
60494;SDS011;46342;49.046;11.920;2023-04-24T01:33:07;1.88;;;1.70;;
60494;SDS011;46342;49.046;11.920;2023-04-24T01:35:33;1.60;;;1.50;;
60494;SDS011;46342;49.046;11.920;2023-04-24T01:37:59;3.22;;;1.63;;
60494;SDS011;46342;49.046;11.920;2023-04-24T01:40:25;1.90;;;1.67;;
60494;SDS011;46342;49.046;11.920;2023-04-24T01:42:50;2.03;;;1.73;;
60494;SDS011;46342;49.046;11.920;2023-04-24T01:45:16;2.03;;;1.70;;
60494;SDS011;46342;49.046;11.920;2023-04-24T01:47:42;2.20;;;1.95;;
60494;SDS011;46342;49.046;11.920;2023-04-24T01:50:09;3.13;;;2.00;;
60494;SDS011;46342;49.046;11.920;2023-04-24T01:52:35;2.38;;;2.03;;
60494;SDS011;46342;49.046;11.920;2023-04-24T01:55:01;3.67;;;2.15;;
60494;SDS011;46342;49.046;11.920;2023-04-24T01:57:27;2.45;;;2.25;;
60494;SDS011;46342;49.046;11.920;2023-04-24T01:59:55;3.15;;;2.00;;
60494;SDS011;46342;49.046;11.920;2023-04-24T02:02:20;2.80;;;2.50;;
60494;SDS011;46342;49.046;11.920;2023-04-24T02:04:48;2.42;;;2.20;;
60494;SDS011;46342;49.046;11.920;2023-04-24T02:07:17;3.15;;;2.50;;
60494;SDS011;46342;49.046;11.920;2023-04-24T02:09:42;3.00;;;2.38;;
60494;SDS011;46342;49.046;11.920;2023-04-24T02:12:08;2.92;;;2.40;;
60494;SDS011;46342;49.046;11.920;2023-04-24T02:14:33;3.00;;;2.20;;
60494;SDS011;46342;49.046;11.920;2023-04-24T02:16:59;3.13;;;2.03;;
60494;SDS011;46342;49.046;11.920;2023-04-24T02:19:25;2.97;;;2.53;;
60494;SDS011;46342;49.046;11.920;2023-04-24T02:21:51;3.00;;;2.30;;
60494;SDS011;46342;49.046;11.920;2023-04-24T02:24:17;2.70;;;2.38;;
60494;SDS011;46342;49.046;11.920;2023-04-24T02:26:42;2.90;;;2.60;;
60494;SDS011;46342;49.046;11.920;2023-04-24T02:29:08;2.70;;;2.42;;
60494;SDS011;46342;49.046;11.920;2023-04-24T02:31:33;2.58;;;2.30;;
60494;SDS011;46342;49.046;11.920;2023-04-24T02:33:59;2.70;;;2.30;;
60494;SDS011;46342;49.046;11.920;2023-04-24T02:36:24;2.72;;;2.40;;
60494;SDS011;46342;49.046;11.920;2023-04-24T02:38:50;2.88;;;2.20;;
60494;SDS011;46342;49.046;11.920;2023-04-24T02:41:16;2.30;;;2.10;;
60494;SDS011;46342;49.046;11.920;2023-04-24T02:43:41;3.35;;;2.03;;
60494;SDS011;46342;49.046;11.920;2023-04-24T02:46:07;2.03;;;1.83;;
60494;SDS011;46342;49.046;11.920;2023-04-24T02:48:32;3.75;;;1.98;;
60494;SDS011;46342;49.046;11.920;2023-04-24T02:50:58;3.47;;;2.00;;
60494;SDS011;46342;49.046;11.920;2023-04-24T02:53:23;2.28;;;1.98;;
60494;SDS011;46342;49.046;11.920;2023-04-24T02:55:49;1.90;;;1.70;;
60494;SDS011;46342;49.046;11.920;2023-04-24T02:58:14;2.28;;;2.08;;
60494;SDS011;46342;49.046;11.920;2023-04-24T03:00:40;2.95;;;1.73;;
60494;SDS011;46342;49.046;11.920;2023-04-24T03:03:06;1.98;;;1.80;;
60494;SDS011;46342;49.046;11.920;2023-04-24T03:05:32;1.75;;;1.65;;
60494;SDS011;46342;49.046;11.920;2023-04-24T03:07:57;3.17;;;2.08;;
60494;SDS011;46342;49.046;11.920;2023-04-24T03:10:23;2.80;;;1.60;;
60494;SDS011;46342;49.046;11.920;2023-04-24T03:12:49;1.90;;;1.60;;
60494;SDS011;46342;49.046;11.920;2023-04-24T03:15:15;6.30;;;2.90;;
60494;SDS011;46342;49.046;11.920;2023-04-24T03:17:40;1.70;;;1.60;;
60494;SDS011;46342;49.046;11.920;2023-04-24T03:20:06;1.67;;;1.58;;
60494;SDS011;46342;49.046;11.920;2023-04-24T03:22:35;2.83;;;1.70;;
60494;SDS011;46342;49.046;11.920;2023-04-24T03:25:01;2.45;;;1.67;;
60494;SDS011;46342;49.046;11.920;2023-04-24T03:27:27;2.83;;;1.77;;
60494;SDS011;46342;49.046;11.920;2023-04-24T03:29:52;1.60;;;1.50;;
60494;SDS011;46342;49.046;11.920;2023-04-24T03:32:20;2.38;;;1.88;;
60494;SDS011;46342;49.046;11.920;2023-04-24T03:34:47;1.87;;;1.67;;
60494;SDS011;46342;49.046;11.920;2023-04-24T03:37:13;1.73;;;1.63;;
60494;SDS011;46342;49.046;11.920;2023-04-24T03:39:39;2.75;;;2.45;;
60494;SDS011;46342;49.046;11.920;2023-04-24T03:42:05;2.00;;;1.80;;
60494;SDS011;46342;49.046;11.920;2023-04-24T03:44:30;1.83;;;1.73;;
60494;SDS011;46342;49.046;11.920;2023-04-24T03:46:57;2.10;;;1.63;;
60494;SDS011;46342;49.046;11.920;2023-04-24T03:49:23;1.92;;;1.75;;
60494;SDS011;46342;49.046;11.920;2023-04-24T03:51:48;3.13;;;1.50;;
60494;SDS011;46342;49.046;11.920;2023-04-24T03:54:14;1.50;;;1.38;;
60494;SDS011;46342;49.046;11.920;2023-04-24T03:56:40;1.50;;;1.40;;
60494;SDS011;46342;49.046;11.920;2023-04-24T03:59:05;1.50;;;1.40;;
60494;SDS011;46342;49.046;11.920;2023-04-24T04:01:31;1.45;;;1.35;;
60494;SDS011;46342;49.046;11.920;2023-04-24T04:03:56;2.35;;;1.52;;
60494;SDS011;46342;49.046;11.920;2023-04-24T04:06:22;2.08;;;1.40;;
60494;SDS011;46342;49.046;11.920;2023-04-24T04:08:47;1.58;;;1.42;;
60494;SDS011;46342;49.046;11.920;2023-04-24T04:11:13;1.42;;;1.33;;
60494;SDS011;46342;49.046;11.920;2023-04-24T04:13:39;1.70;;;1.60;;
60494;SDS011;46342;49.046;11.920;2023-04-24T04:16:04;1.48;;;1.27;;
60494;SDS011;46342;49.046;11.920;2023-04-24T04:18:30;1.52;;;1.40;;
60494;SDS011;46342;49.046;11.920;2023-04-24T04:20:56;1.40;;;1.30;;
60494;SDS011;46342;49.046;11.920;2023-04-24T04:23:22;1.75;;;1.60;;
60494;SDS011;46342;49.046;11.920;2023-04-24T04:25:47;1.67;;;1.48;;
60494;SDS011;46342;49.046;11.920;2023-04-24T04:28:14;2.20;;;1.65;;
60494;SDS011;46342;49.046;11.920;2023-04-24T04:30:40;1.65;;;1.55;;
60494;SDS011;46342;49.046;11.920;2023-04-24T04:33:06;2.78;;;2.53;;
60494;SDS011;46342;49.046;11.920;2023-04-24T04:35:33;1.60;;;1.50;;
60494;SDS011;46342;49.046;11.920;2023-04-24T04:37:58;1.30;;;1.20;;
60494;SDS011;46342;49.046;11.920;2023-04-24T04:40:24;2.75;;;1.40;;
60494;SDS011;46342;49.046;11.920;2023-04-24T04:42:49;1.55;;;1.45;;
60494;SDS011;46342;49.046;11.920;2023-04-24T04:47:43;1.55;;;1.27;;
60494;SDS011;46342;49.046;11.920;2023-04-24T04:50:09;1.48;;;1.38;;
60494;SDS011;46342;49.046;11.920;2023-04-24T04:52:35;2.97;;;1.42;;
60494;SDS011;46342;49.046;11.920;2023-04-24T04:55:01;1.88;;;1.40;;
60494;SDS011;46342;49.046;11.920;2023-04-24T04:57:27;1.50;;;1.40;;
60494;SDS011;46342;49.046;11.920;2023-04-24T04:59:52;1.20;;;1.10;;
60494;SDS011;46342;49.046;11.920;2023-04-24T05:02:18;2.20;;;1.38;;
60494;SDS011;46342;49.046;11.920;2023-04-24T05:04:43;2.00;;;1.80;;
60494;SDS011;46342;49.046;11.920;2023-04-24T05:07:10;2.42;;;1.38;;
60494;SDS011;46342;49.046;11.920;2023-04-24T05:09:36;2.97;;;1.33;;
60494;SDS011;46342;49.046;11.920;2023-04-24T05:12:01;1.63;;;1.50;;
60494;SDS011;46342;49.046;11.920;2023-04-24T05:14:27;1.27;;;1.20;;
60494;SDS011;46342;49.046;11.920;2023-04-24T05:16:52;2.50;;;1.50;;
60494;SDS011;46342;49.046;11.920;2023-04-24T05:19:18;1.38;;;1.27;;
60494;SDS011;46342;49.046;11.920;2023-04-24T05:21:43;1.30;;;1.20;;
60494;SDS011;46342;49.046;11.920;2023-04-24T05:24:09;1.30;;;1.20;;
60494;SDS011;46342;49.046;11.920;2023-04-24T05:26:35;1.60;;;1.40;;
60494;SDS011;46342;49.046;11.920;2023-04-24T05:29:00;1.25;;;1.15;;
60494;SDS011;46342;49.046;11.920;2023-04-24T05:31:27;2.72;;;1.42;;
60494;SDS011;46342;49.046;11.920;2023-04-24T05:33:52;1.38;;;1.15;;
60494;SDS011;46342;49.046;11.920;2023-04-24T05:36:18;1.40;;;1.30;;
60494;SDS011;46342;49.046;11.920;2023-04-24T05:38:43;1.55;;;1.40;;
60494;SDS011;46342;49.046;11.920;2023-04-24T05:41:09;1.05;;;1.02;;
60494;SDS011;46342;49.046;11.920;2023-04-24T05:43:35;1.00;;;1.00;;
60494;SDS011;46342;49.046;11.920;2023-04-24T05:46:00;1.85;;;1.05;;
60494;SDS011;46342;49.046;11.920;2023-04-24T05:48:26;1.30;;;1.13;;
60494;SDS011;46342;49.046;11.920;2023-04-24T05:50:51;1.23;;;1.13;;
60494;SDS011;46342;49.046;11.920;2023-04-24T05:53:17;1.30;;;1.20;;
60494;SDS011;46342;49.046;11.920;2023-04-24T05:55:43;1.67;;;1.20;;
60494;SDS011;46342;49.046;11.920;2023-04-24T05:58:09;1.67;;;1.33;;
60494;SDS011;46342;49.046;11.920;2023-04-24T06:00:35;1.10;;;1.00;;
60494;SDS011;46342;49.046;11.920;2023-04-24T06:03:01;1.48;;;1.17;;
60494;SDS011;46342;49.046;11.920;2023-04-24T06:05:28;9.52;;;1.50;;
60494;SDS011;46342;49.046;11.920;2023-04-24T06:07:55;1.27;;;1.17;;
60494;SDS011;46342;49.046;11.920;2023-04-24T06:10:20;1.23;;;1.10;;
60494;SDS011;46342;49.046;11.920;2023-04-24T06:12:46;1.20;;;1.10;;
60494;SDS011;46342;49.046;11.920;2023-04-24T06:15:12;0.93;;;0.93;;
60494;SDS011;46342;49.046;11.920;2023-04-24T06:17:37;1.33;;;1.23;;
60494;SDS011;46342;49.046;11.920;2023-04-24T06:20:03;0.98;;;0.95;;
60494;SDS011;46342;49.046;11.920;2023-04-24T06:22:30;1.83;;;1.00;;
60494;SDS011;46342;49.046;11.920;2023-04-24T06:24:56;1.20;;;1.08;;
60494;SDS011;46342;49.046;11.920;2023-04-24T06:27:21;0.90;;;0.90;;
60494;SDS011;46342;49.046;11.920;2023-04-24T06:29:47;1.90;;;1.08;;
60494;SDS011;46342;49.046;11.920;2023-04-24T06:32:19;3.75;;;1.10;;
60494;SDS011;46342;49.046;11.920;2023-04-24T06:34:46;1.03;;;1.03;;
60494;SDS011;46342;49.046;11.920;2023-04-24T06:37:11;1.05;;;0.93;;
60494;SDS011;46342;49.046;11.920;2023-04-24T06:39:37;0.80;;;0.80;;
60494;SDS011;46342;49.046;11.920;2023-04-24T06:42:02;1.00;;;1.00;;
60494;SDS011;46342;49.046;11.920;2023-04-24T06:44:28;1.02;;;0.82;;
60494;SDS011;46342;49.046;11.920;2023-04-24T06:46:53;0.98;;;0.90;;
60494;SDS011;46342;49.046;11.920;2023-04-24T06:49:19;1.42;;;0.98;;
60494;SDS011;46342;49.046;11.920;2023-04-24T06:51:45;0.93;;;0.85;;
60494;SDS011;46342;49.046;11.920;2023-04-24T06:54:10;1.77;;;1.02;;
60494;SDS011;46342;49.046;11.920;2023-04-24T06:56:36;0.70;;;0.70;;
60494;SDS011;46342;49.046;11.920;2023-04-24T06:59:02;0.82;;;0.82;;
60494;SDS011;46342;49.046;11.920;2023-04-24T07:01:28;0.88;;;0.85;;
60494;SDS011;46342;49.046;11.920;2023-04-24T07:03:53;0.93;;;0.77;;
60494;SDS011;46342;49.046;11.920;2023-04-24T07:06:19;1.33;;;0.90;;
60494;SDS011;46342;49.046;11.920;2023-04-24T07:08:47;5.88;;;0.90;;
60494;SDS011;46342;49.046;11.920;2023-04-24T07:11:13;0.77;;;0.77;;
60494;SDS011;46342;49.046;11.920;2023-04-24T07:13:38;1.45;;;1.00;;
60494;SDS011;46342;49.046;11.920;2023-04-24T07:16:06;1.08;;;0.95;;
60494;SDS011;46342;49.046;11.920;2023-04-24T07:18:33;0.70;;;0.70;;
60494;SDS011;46342;49.046;11.920;2023-04-24T07:20:58;0.93;;;0.90;;
60494;SDS011;46342;49.046;11.920;2023-04-24T07:23:24;0.70;;;0.70;;
60494;SDS011;46342;49.046;11.920;2023-04-24T07:25:50;0.80;;;0.80;;
60494;SDS011;46342;49.046;11.920;2023-04-24T07:28:15;1.10;;;1.00;;
60494;SDS011;46342;49.046;11.920;2023-04-24T07:30:42;0.70;;;0.70;;
60494;SDS011;46342;49.046;11.920;2023-04-24T07:33:08;0.68;;;0.68;;
60494;SDS011;46342;49.046;11.920;2023-04-24T07:35:36;1.10;;;1.00;;
60494;SDS011;46342;49.046;11.920;2023-04-24T07:38:01;2.47;;;0.90;;
60494;SDS011;46342;49.046;11.920;2023-04-24T07:40:27;0.70;;;0.70;;
60494;SDS011;46342;49.046;11.920;2023-04-24T07:42:52;0.65;;;0.65;;
60494;SDS011;46342;49.046;11.920;2023-04-24T07:45:18;0.70;;;0.70;;
60494;SDS011;46342;49.046;11.920;2023-04-24T07:47:44;0.95;;;0.90;;
60494;SDS011;46342;49.046;11.920;2023-04-24T07:50:10;1.05;;;0.82;;
60494;SDS011;46342;49.046;11.920;2023-04-24T07:52:37;0.73;;;0.70;;
60494;SDS011;46342;49.046;11.920;2023-04-24T07:55:03;1.25;;;0.95;;
60494;SDS011;46342;49.046;11.920;2023-04-24T07:57:29;0.98;;;0.90;;
60494;SDS011;46342;49.046;11.920;2023-04-24T07:59:55;1.17;;;0.70;;
60494;SDS011;46342;49.046;11.920;2023-04-24T08:02:21;0.70;;;0.70;;
60494;SDS011;46342;49.046;11.920;2023-04-24T08:04:51;0.95;;;0.68;;
60494;SDS011;46342;49.046;11.920;2023-04-24T08:07:19;1.83;;;1.00;;
60494;SDS011;46342;49.046;11.920;2023-04-24T08:09:45;0.82;;;0.70;;
60494;SDS011;46342;49.046;11.920;2023-04-24T08:12:10;0.95;;;0.80;;
60494;SDS011;46342;49.046;11.920;2023-04-24T08:14:36;0.70;;;0.70;;
60494;SDS011;46342;49.046;11.920;2023-04-24T08:17:01;1.55;;;0.98;;
60494;SDS011;46342;49.046;11.920;2023-04-24T08:19:30;1.83;;;0.70;;
60494;SDS011;46342;49.046;11.920;2023-04-24T08:21:55;0.63;;;0.63;;
60494;SDS011;46342;49.046;11.920;2023-04-24T08:24:22;1.00;;;0.90;;
60494;SDS011;46342;49.046;11.920;2023-04-24T08:26:47;0.88;;;0.60;;
60494;SDS011;46342;49.046;11.920;2023-04-24T08:29:16;0.98;;;0.98;;
60494;SDS011;46342;49.046;11.920;2023-04-24T08:31:42;0.60;;;0.60;;
60494;SDS011;46342;49.046;11.920;2023-04-24T08:34:08;1.30;;;0.90;;
60494;SDS011;46342;49.046;11.920;2023-04-24T08:36:35;0.60;;;0.60;;
60494;SDS011;46342;49.046;11.920;2023-04-24T08:39:01;0.80;;;0.80;;
60494;SDS011;46342;49.046;11.920;2023-04-24T08:41:26;0.60;;;0.60;;
60494;SDS011;46342;49.046;11.920;2023-04-24T08:43:52;1.05;;;0.70;;
60494;SDS011;46342;49.046;11.920;2023-04-24T08:46:20;2.08;;;0.73;;
60494;SDS011;46342;49.046;11.920;2023-04-24T08:48:47;1.10;;;1.00;;
60494;SDS011;46342;49.046;11.920;2023-04-24T08:51:13;0.70;;;0.70;;
60494;SDS011;46342;49.046;11.920;2023-04-24T08:53:40;0.82;;;0.82;;
60494;SDS011;46342;49.046;11.920;2023-04-24T08:56:05;1.73;;;0.88;;
60494;SDS011;46342;49.046;11.920;2023-04-24T08:58:32;1.08;;;1.08;;
60494;SDS011;46342;49.046;11.920;2023-04-24T09:00:58;1.05;;;0.80;;
60494;SDS011;46342;49.046;11.920;2023-04-24T09:03:24;1.17;;;0.80;;
60494;SDS011;46342;49.046;11.920;2023-04-24T09:05:51;1.70;;;0.80;;
60494;SDS011;46342;49.046;11.920;2023-04-24T09:08:19;0.85;;;0.85;;
60494;SDS011;46342;49.046;11.920;2023-04-24T09:10:45;0.73;;;0.73;;
60494;SDS011;46342;49.046;11.920;2023-04-24T09:13:10;0.80;;;0.80;;
60494;SDS011;46342;49.046;11.920;2023-04-24T09:15:37;1.38;;;0.80;;
60494;SDS011;46342;49.046;11.920;2023-04-24T09:18:03;0.80;;;0.80;;
60494;SDS011;46342;49.046;11.920;2023-04-24T09:20:29;0.68;;;0.68;;
60494;SDS011;46342;49.046;11.920;2023-04-24T09:22:59;0.65;;;0.65;;
60494;SDS011;46342;49.046;11.920;2023-04-24T09:25:30;1.67;;;0.90;;
60494;SDS011;46342;49.046;11.920;2023-04-24T09:28:00;1.38;;;0.80;;
60494;SDS011;46342;49.046;11.920;2023-04-24T09:30:27;1.77;;;0.80;;
60494;SDS011;46342;49.046;11.920;2023-04-24T09:33:09;0.80;;;0.80;;
60494;SDS011;46342;49.046;11.920;2023-04-24T09:35:52;1.55;;;0.82;;
60494;SDS011;46342;49.046;11.920;2023-04-24T09:38:18;0.85;;;0.70;;
60494;SDS011;46342;49.046;11.920;2023-04-24T09:40:45;0.88;;;0.88;;
60494;SDS011;46342;49.046;11.920;2023-04-24T09:43:11;0.70;;;0.70;;
60494;SDS011;46342;49.046;11.920;2023-04-24T09:45:37;1.48;;;0.70;;
60494;SDS011;46342;49.046;11.920;2023-04-24T09:48:04;0.90;;;0.90;;
60494;SDS011;46342;49.046;11.920;2023-04-24T09:50:31;0.80;;;0.80;;
60494;SDS011;46342;49.046;11.920;2023-04-24T09:52:58;0.80;;;0.80;;
60494;SDS011;46342;49.046;11.920;2023-04-24T09:55:26;1.30;;;0.93;;
60494;SDS011;46342;49.046;11.920;2023-04-24T10:00:21;2.00;;;0.93;;
60494;SDS011;46342;49.046;11.920;2023-04-24T10:02:58;1.38;;;1.00;;
60494;SDS011;46342;49.046;11.920;2023-04-24T10:05:31;1.25;;;0.98;;
60494;SDS011;46342;49.046;11.920;2023-04-24T10:10:34;1.10;;;1.00;;
60494;SDS011;46342;49.046;11.920;2023-04-24T10:13:03;0.85;;;0.85;;
60494;SDS011;46342;49.046;11.920;2023-04-24T10:15:29;1.10;;;0.90;;
60494;SDS011;46342;49.046;11.920;2023-04-24T10:17:55;0.90;;;0.90;;
60494;SDS011;46342;49.046;11.920;2023-04-24T10:20:24;1.95;;;1.10;;
60494;SDS011;46342;49.046;11.920;2023-04-24T10:22:52;1.77;;;0.88;;
60494;SDS011;46342;49.046;11.920;2023-04-24T10:25:22;1.15;;;1.00;;
60494;SDS011;46342;49.046;11.920;2023-04-24T10:27:50;1.60;;;1.33;;
60494;SDS011;46342;49.046;11.920;2023-04-24T10:30:17;1.70;;;1.10;;
60494;SDS011;46342;49.046;11.920;2023-04-24T10:32:44;1.52;;;0.93;;
60494;SDS011;46342;49.046;11.920;2023-04-24T10:35:10;1.35;;;1.23;;
60494;SDS011;46342;49.046;11.920;2023-04-24T10:37:39;0.90;;;0.90;;
60494;SDS011;46342;49.046;11.920;2023-04-24T10:40:08;1.00;;;1.00;;
60494;SDS011;46342;49.046;11.920;2023-04-24T10:42:35;0.80;;;0.80;;
60494;SDS011;46342;49.046;11.920;2023-04-24T10:45:05;1.92;;;1.20;;
60494;SDS011;46342;49.046;11.920;2023-04-24T10:47:39;1.55;;;0.85;;
60494;SDS011;46342;49.046;11.920;2023-04-24T10:50:09;0.90;;;0.90;;
60494;SDS011;46342;49.046;11.920;2023-04-24T10:52:45;1.00;;;0.90;;
60494;SDS011;46342;49.046;11.920;2023-04-24T10:55:16;0.98;;;0.90;;
60494;SDS011;46342;49.046;11.920;2023-04-24T10:58:03;1.05;;;0.95;;
60494;SDS011;46342;49.046;11.920;2023-04-24T11:00:29;1.10;;;1.00;;
60494;SDS011;46342;49.046;11.920;2023-04-24T11:02:54;1.25;;;1.10;;
60494;SDS011;46342;49.046;11.920;2023-04-24T11:05:21;8.85;;;2.83;;
60494;SDS011;46342;49.046;11.920;2023-04-24T11:10:44;1.63;;;1.20;;
60494;SDS011;46342;49.046;11.920;2023-04-24T11:13:14;2.33;;;1.10;;
60494;SDS011;46342;49.046;11.920;2023-04-24T11:15:41;5.18;;;2.15;;
60494;SDS011;46342;49.046;11.920;2023-04-24T11:18:12;2.65;;;1.13;;
60494;SDS011;46342;49.046;11.920;2023-04-24T11:20:41;2.28;;;1.50;;
60494;SDS011;46342;49.046;11.920;2023-04-24T11:23:08;3.42;;;1.67;;
60494;SDS011;46342;49.046;11.920;2023-04-24T11:25:34;1.10;;;1.00;;
60494;SDS011;46342;49.046;11.920;2023-04-24T11:28:04;0.95;;;0.85;;
60494;SDS011;46342;49.046;11.920;2023-04-24T11:30:31;1.10;;;0.80;;
60494;SDS011;46342;49.046;11.920;2023-04-24T11:33:04;0.60;;;0.60;;
60494;SDS011;46342;49.046;11.920;2023-04-24T11:35:30;0.63;;;0.63;;
60494;SDS011;46342;49.046;11.920;2023-04-24T11:38:02;0.70;;;0.70;;
60494;SDS011;46342;49.046;11.920;2023-04-24T11:40:28;0.82;;;0.82;;
60494;SDS011;46342;49.046;11.920;2023-04-24T11:42:53;1.00;;;0.82;;
60494;SDS011;46342;49.046;11.920;2023-04-24T11:45:23;1.98;;;0.88;;
60494;SDS011;46342;49.046;11.920;2023-04-24T11:47:53;1.00;;;0.88;;
60494;SDS011;46342;49.046;11.920;2023-04-24T11:50:20;1.13;;;1.02;;
60494;SDS011;46342;49.046;11.920;2023-04-24T11:52:48;0.70;;;0.70;;
60494;SDS011;46342;49.046;11.920;2023-04-24T11:57:44;3.50;;;1.35;;
60494;SDS011;46342;49.046;11.920;2023-04-24T12:00:15;1.10;;;1.00;;
60494;SDS011;46342;49.046;11.920;2023-04-24T12:02:41;2.85;;;1.52;;
60494;SDS011;46342;49.046;11.920;2023-04-24T12:05:07;1.20;;;1.10;;
60494;SDS011;46342;49.046;11.920;2023-04-24T12:07:39;4.03;;;1.15;;
60494;SDS011;46342;49.046;11.920;2023-04-24T12:10:09;2.03;;;1.30;;
60494;SDS011;46342;49.046;11.920;2023-04-24T12:12:35;1.02;;;1.00;;
60494;SDS011;46342;49.046;11.920;2023-04-24T12:15:00;1.33;;;1.10;;
60494;SDS011;46342;49.046;11.920;2023-04-24T12:17:31;1.85;;;0.98;;
60494;SDS011;46342;49.046;11.920;2023-04-24T12:20:05;0.95;;;0.95;;
60494;SDS011;46342;49.046;11.920;2023-04-24T12:25:15;2.58;;;1.33;;
60494;SDS011;46342;49.046;11.920;2023-04-24T12:27:43;0.85;;;0.85;;
60494;SDS011;46342;49.046;11.920;2023-04-24T12:30:10;0.98;;;0.88;;
60494;SDS011;46342;49.046;11.920;2023-04-24T12:32:48;1.10;;;1.00;;
60494;SDS011;46342;49.046;11.920;2023-04-24T12:35:21;0.80;;;0.80;;
60494;SDS011;46342;49.046;11.920;2023-04-24T12:37:48;1.13;;;0.95;;
60494;SDS011;46342;49.046;11.920;2023-04-24T12:40:15;0.90;;;0.90;;
60494;SDS011;46342;49.046;11.920;2023-04-24T12:42:43;1.47;;;0.80;;
60494;SDS011;46342;49.046;11.920;2023-04-24T12:45:13;2.72;;;0.82;;
60494;SDS011;46342;49.046;11.920;2023-04-24T12:47:39;1.13;;;0.90;;
60494;SDS011;46342;49.046;11.920;2023-04-24T12:50:07;1.75;;;0.95;;
60494;SDS011;46342;49.046;11.920;2023-04-24T12:52:34;15.45;;;1.30;;
60494;SDS011;46342;49.046;11.920;2023-04-24T12:55:00;1.95;;;1.42;;
60494;SDS011;46342;49.046;11.920;2023-04-24T12:57:28;2.22;;;1.00;;
60494;SDS011;46342;49.046;11.920;2023-04-24T12:59:55;0.80;;;0.80;;
60494;SDS011;46342;49.046;11.920;2023-04-24T13:02:23;0.80;;;0.80;;
60494;SDS011;46342;49.046;11.920;2023-04-24T13:04:49;0.80;;;0.80;;
60494;SDS011;46342;49.046;11.920;2023-04-24T13:07:15;0.80;;;0.80;;
60494;SDS011;46342;49.046;11.920;2023-04-24T13:09:42;0.70;;;0.70;;
60494;SDS011;46342;49.046;11.920;2023-04-24T13:12:09;0.73;;;0.73;;
60494;SDS011;46342;49.046;11.920;2023-04-24T13:14:35;2.03;;;1.00;;
60494;SDS011;46342;49.046;11.920;2023-04-24T13:17:01;1.00;;;1.00;;
60494;SDS011;46342;49.046;11.920;2023-04-24T13:19:28;1.10;;;1.00;;
60494;SDS011;46342;49.046;11.920;2023-04-24T13:21:54;1.42;;;0.60;;
60494;SDS011;46342;49.046;11.920;2023-04-24T13:24:21;1.45;;;0.90;;
60494;SDS011;46342;49.046;11.920;2023-04-24T13:26:51;2.28;;;0.95;;
60494;SDS011;46342;49.046;11.920;2023-04-24T13:29:17;1.65;;;0.73;;
60494;SDS011;46342;49.046;11.920;2023-04-24T13:31:43;3.40;;;1.30;;
60494;SDS011;46342;49.046;11.920;2023-04-24T13:34:09;1.48;;;0.90;;
60494;SDS011;46342;49.046;11.920;2023-04-24T13:36:35;0.70;;;0.70;;
60494;SDS011;46342;49.046;11.920;2023-04-24T13:39:01;0.80;;;0.80;;
60494;SDS011;46342;49.046;11.920;2023-04-24T13:41:29;1.60;;;1.00;;
60494;SDS011;46342;49.046;11.920;2023-04-24T13:43:55;0.80;;;0.80;;
60494;SDS011;46342;49.046;11.920;2023-04-24T13:46:20;0.90;;;0.90;;
60494;SDS011;46342;49.046;11.920;2023-04-24T13:48:46;1.67;;;1.00;;
60494;SDS011;46342;49.046;11.920;2023-04-24T13:51:12;1.80;;;1.00;;
60494;SDS011;46342;49.046;11.920;2023-04-24T13:53:37;0.80;;;0.80;;
60494;SDS011;46342;49.046;11.920;2023-04-24T13:56:03;2.63;;;0.93;;
60494;SDS011;46342;49.046;11.920;2023-04-24T13:58:30;1.70;;;1.08;;
60494;SDS011;46342;49.046;11.920;2023-04-24T14:00:57;0.75;;;0.75;;
60494;SDS011;46342;49.046;11.920;2023-04-24T14:03:22;0.70;;;0.70;;
60494;SDS011;46342;49.046;11.920;2023-04-24T14:05:48;0.70;;;0.70;;
60494;SDS011;46342;49.046;11.920;2023-04-24T14:08:13;1.67;;;1.00;;
60494;SDS011;46342;49.046;11.920;2023-04-24T14:10:39;1.42;;;0.98;;
60494;SDS011;46342;49.046;11.920;2023-04-24T14:13:05;1.02;;;0.90;;
60494;SDS011;46342;49.046;11.920;2023-04-24T14:15:31;1.88;;;1.60;;
60494;SDS011;46342;49.046;11.920;2023-04-24T14:17:57;1.25;;;1.10;;
60494;SDS011;46342;49.046;11.920;2023-04-24T14:20:22;0.88;;;0.82;;
60494;SDS011;46342;49.046;11.920;2023-04-24T14:22:48;2.85;;;1.20;;
60494;SDS011;46342;49.046;11.920;2023-04-24T14:25:14;1.25;;;1.10;;
60494;SDS011;46342;49.046;11.920;2023-04-24T14:27:40;1.20;;;1.10;;
60494;SDS011;46342;49.046;11.920;2023-04-24T14:30:06;1.00;;;0.90;;
60494;SDS011;46342;49.046;11.920;2023-04-24T14:32:32;1.00;;;0.90;;
60494;SDS011;46342;49.046;11.920;2023-04-24T14:34:57;0.90;;;0.90;;
60494;SDS011;46342;49.046;11.920;2023-04-24T14:37:23;1.15;;;0.82;;
60494;SDS011;46342;49.046;11.920;2023-04-24T14:39:48;1.00;;;0.93;;
60494;SDS011;46342;49.046;11.920;2023-04-24T14:42:14;1.08;;;1.00;;
60494;SDS011;46342;49.046;11.920;2023-04-24T14:44:41;0.88;;;0.80;;